Time;durP1;ratioP1;P1;durP2;ratioP2;P2;SDS_P1;SDS_P2;PMS_P1;PMS_P2;Temp;Humidity;BMP_temperature;BMP_pressure;BME280_temperature;BME280_humidity;BME280_pressure;Samples;Min_cycle;Max_cycle;Signal;HPM_P1;HPM_P2
2022/02/24 00:02:03;;;;;;;;;;;;;;;;;;5072958;28;960;-74
2022/02/24 00:04:29;;;;;;;;;;;;;;;;;;5090961;28;1300;-74
2022/02/24 00:06:56;;;;;;;;;;;;;;;;;;5091043;28;1977;-73
2022/02/24 00:09:22;;;;;;;;;;;;;;;;;;5091012;28;711;-73
2022/02/24 00:11:48;;;;;;;;;;;;;;;;;;5090568;28;1135;-74
2022/02/24 00:14:16;;;;;;;;;;;;;;;;;;5072668;28;1361;-73
2022/02/24 00:16:42;;;;;;;;;;;;;;;;;;5077006;28;1090;-74
2022/02/24 00:19:08;;;;;;;;;;;;;;;;;;5095065;28;1066;-74
2022/02/24 00:21:34;;;;;;;;;;;;;;;;;;5094401;28;738;-74
2022/02/24 00:24:00;;;;;;;;;;;;;;;;;;5094861;28;1410;-73
2022/02/24 00:26:26;;;;;;;;;;;;;;;;;;5094835;28;1906;-74
2022/02/24 00:28:53;;;;;;;;;;;;;;;;;;5094770;28;1122;-74
2022/02/24 00:31:22;;;;;;;;;;;;;;;;;;5094723;28;1008;-74
2022/02/24 00:33:48;;;;;;;;;;;;;;;;;;5094729;28;979;-74
2022/02/24 00:36:15;;;;;;;;;;;;;;;;;;5076359;28;1303;-74
2022/02/24 00:38:41;;;;;;;;;;;;;;;;;;5094519;28;980;-74
2022/02/24 00:41:07;;;;;;;;;;;;;;;;;;5093801;28;1056;-74
2022/02/24 00:43:33;;;;;;;;;;;;;;;;;;5094565;28;782;-74
2022/02/24 00:45:59;;;;;;;;;;;;;;;;;;5094376;28;1914;-74
2022/02/24 00:48:27;;;;;;;;;;;;;;;;;;5094755;28;739;-74
2022/02/24 00:50:53;;;;;;;;;;;;;;;;;;5094038;28;955;-73
2022/02/24 00:53:19;;;;;;;;;;;;;;;;;;5094408;28;1130;-73
2022/02/24 00:55:46;;;;;;;;;;;;;;;;;;5093925;28;1359;-73
2022/02/24 00:58:12;;;;;;;;;;;;;;;;;;5093914;28;962;-73
2022/02/24 01:00:38;;;;;;;;;;;;;;;;;;5093950;28;1265;-72
2022/02/24 01:03:04;;;;;;;;;;;;;;;;;;5094135;28;845;-71
2022/02/24 01:05:32;;;;;;;;;;;;;;;;;;5094082;28;1376;-73
2022/02/24 01:07:58;;;;;;;;;;;;;;;;;;5093965;28;2028;-73
2022/02/24 01:10:24;;;;;;;;;;;;;;;;;;5093644;28;782;-73
2022/02/24 01:12:50;;;;;;;;;;;;;;;;;;5094006;28;736;-73
2022/02/24 01:15:17;;;;;;;;;;;;;;;;;;5094085;28;1310;-73
2022/02/24 01:17:44;;;;;;;;;;;;;;;;;;5093831;28;818;-73
2022/02/24 01:20:10;;;;;;;;;;;;;;;;;;5075443;28;1151;-74
2022/02/24 01:22:38;;;;;;;;;;;;;;;;;;5093971;28;963;-74
2022/02/24 01:25:05;;;;;;;;;;;;;;;;;;5093364;28;1392;-73
2022/02/24 01:27:31;;;;;;;;;;;;;;;;;;5093600;28;1906;-72
2022/02/24 01:29:58;;;;;;;;;;;;;;;;;;5093324;28;1078;-73
2022/02/24 01:32:24;;;;;;;;;;;;;;;;;;5093306;28;1102;-72
2022/02/24 01:34:58;;;;;;;;;;;;;;;;;;5093702;28;1383;-73
2022/02/24 01:37:24;;;;;;;;;;;;;;;;;;5093523;28;1138;-73
2022/02/24 01:39:51;;;;;;;;;;;;;;;;;;5075080;28;837;-73
2022/02/24 01:42:17;;;;;;;;;;;;;;;;;;5090090;28;1498;-73
2022/02/24 01:44:44;;;;;;;;;;;;;;;;;;5093651;28;1286;-73
2022/02/24 01:47:11;;;;;;;;;;;;;;;;;;5093254;28;1976;-73
2022/02/24 01:49:38;;;;;;;;;;;;;;;;;;5074663;28;1350;-72
2022/02/24 01:52:04;;;;;;;;;;;;;;;;;;5093179;28;869;-73
2022/02/24 01:54:30;;;;;;;;;;;;;;;;;;5092892;28;1294;-73
2022/02/24 01:56:58;;;;;;;;;;;;;;;;;;5093166;28;1078;-73
2022/02/24 01:59:24;;;;;;;;;;;;;;;;;;5093221;28;808;-72
2022/02/24 02:01:51;;;;;;;;;;;;;;;;;;5074815;28;1303;-73
2022/02/24 02:04:17;;;;;;;;;;;;;;;;;;5074809;28;1332;-73
2022/02/24 02:06:43;;;;;;;;;;;;;;;;;;5092564;28;1973;-72
2022/02/24 02:09:10;;;;;;;;;;;;;;;;;;5092977;28;1010;-72
2022/02/24 02:11:36;;;;;;;;;;;;;;;;;;5074646;28;1062;-74
2022/02/24 02:14:04;;;;;;;;;;;;;;;;;;5092845;28;1341;-73
2022/02/24 02:16:30;;;;;;;;;;;;;;;;;;5093336;28;1082;-71
2022/02/24 02:18:56;;;;;;;;;;;;;;;;;;5092666;28;1133;-73
2022/02/24 02:21:23;;;;;;;;;;;;;;;;;;5092446;28;1019;-73
2022/02/24 02:23:50;;;;;;;;;;;;;;;;;;5074245;28;1325;-72
2022/02/24 02:26:16;;;;;;;;;;;;;;;;;;5068608;28;1930;-72
2022/02/24 02:28:42;;;;;;;;;;;;;;;;;;5054231;28;1141;-72
2022/02/24 02:31:08;;;;;;;;;;;;;;;;;;5071901;28;980;-73
2022/02/24 02:33:35;;;;;;;;;;;;;;;;;;5072497;28;794;-72
2022/02/24 02:36:01;;;;;;;;;;;;;;;;;;5072248;28;1389;-74
2022/02/24 02:38:29;;;;;;;;;;;;;;;;;;5071054;28;1272;-73
2022/02/24 02:40:55;;;;;;;;;;;;;;;;;;5071710;28;1082;-74
2022/02/24 02:43:21;;;;;;;;;;;;;;;;;;5054118;28;1447;-74
2022/02/24 02:45:49;;;;;;;;;;;;;;;;;;5053895;28;1341;-74
2022/02/24 02:48:15;;;;;;;;;;;;;;;;;;5072058;28;1910;-75
2022/02/24 02:50:41;;;;;;;;;;;;;;;;;;5071673;28;1075;-74
2022/02/24 02:53:07;;;;;;;;;;;;;;;;;;5053785;28;1434;-73
2022/02/24 02:55:35;;;;;;;;;;;;;;;;;;5071383;28;1316;-72
2022/02/24 02:58:01;;;;;;;;;;;;;;;;;;5071561;28;1070;-72
2022/02/24 03:00:27;;;;;;;;;;;;;;;;;;5071094;28;656;-71
2022/02/24 03:02:53;;;;;;;;;;;;;;;;;;5071379;28;1142;-72
2022/02/24 03:05:20;;;;;;;;;;;;;;;;;;5071610;28;1343;-72
2022/02/24 03:07:46;;;;;;;;;;;;;;;;;;5053400;28;1973;-72
2022/02/24 03:10:13;;;;;;;;;;;;;;;;;;5070949;28;837;-72
2022/02/24 03:12:40;;;;;;;;;;;;;;;;;;5071561;28;719;-72
2022/02/24 03:15:08;;;;;;;;;;;;;;;;;;5071205;28;1426;-71
2022/02/24 03:17:35;;;;;;;;;;;;;;;;;;5071234;28;972;-74
2022/02/24 03:20:01;;;;;;;;;;;;;;;;;;5070977;28;874;-73
2022/02/24 03:22:27;;;;;;;;;;;;;;;;;;5071179;28;1090;-73
2022/02/24 03:24:53;;;;;;;;;;;;;;;;;;5071230;28;1285;-73
2022/02/24 03:27:19;;;;;;;;;;;;;;;;;;5071294;28;1936;-73
2022/02/24 03:29:47;;;;;;;;;;;;;;;;;;5070924;28;1082;-73
2022/02/24 03:32:13;;;;;;;;;;;;;;;;;;5071227;28;845;-72
2022/02/24 03:34:41;;;;;;;;;;;;;;;;;;5070569;28;1309;-73
2022/02/24 03:37:07;;;;;;;;;;;;;;;;;;5071178;28;881;-73
2022/02/24 03:39:34;;;;;;;;;;;;;;;;;;5053122;28;874;-72
2022/02/24 03:42:00;;;;;;;;;;;;;;;;;;5073466;28;1550;-72
2022/02/24 03:44:26;;;;;;;;;;;;;;;;;;5071131;28;1336;-73
2022/02/24 03:46:54;;;;;;;;;;;;;;;;;;5071245;28;1919;-72
2022/02/24 03:49:20;;;;;;;;;;;;;;;;;;5070845;28;868;-73
2022/02/24 03:51:46;;;;;;;;;;;;;;;;;;5070594;28;1043;-73
2022/02/24 03:54:12;;;;;;;;;;;;;;;;;;5052404;28;1406;-73
2022/02/24 03:56:38;;;;;;;;;;;;;;;;;;5071038;28;905;-75
2022/02/24 03:59:05;;;;;;;;;;;;;;;;;;5070872;28;1082;-72
2022/02/24 04:01:31;;;;;;;;;;;;;;;;;;5088018;22;3576;-73
2022/02/24 04:03:59;;;;;;;;;;;;;;;;;;5070591;28;1067;-72
2022/02/24 04:06:25;;;;;;;;;;;;;;;;;;5067607;28;2086;-73
2022/02/24 04:08:51;;;;;;;;;;;;;;;;;;5070426;28;1922;-73
2022/02/24 04:11:17;;;;;;;;;;;;;;;;;;5075423;28;1403;-73
2022/02/24 04:13:43;;;;;;;;;;;;;;;;;;5090600;28;1090;-73
2022/02/24 04:16:10;;;;;;;;;;;;;;;;;;5090949;28;1071;-73
2022/02/24 04:18:36;;;;;;;;;;;;;;;;;;5090706;28;987;-73
2022/02/24 04:21:03;;;;;;;;;;;;;;;;;;5090418;28;1292;-72
2022/02/24 04:23:30;;;;;;;;;;;;;;;;;;5090831;28;1145;-73
2022/02/24 04:25:56;;;;;;;;;;;;;;;;;;5090765;28;809;-73
2022/02/24 04:28:22;;;;;;;;;;;;;;;;;;5090281;28;1918;-73
2022/02/24 04:30:48;;;;;;;;;;;;;;;;;;5090241;28;1311;-72
2022/02/24 04:33:14;;;;;;;;;;;;;;;;;;5090603;28;1081;-73
2022/02/24 04:35:41;;;;;;;;;;;;;;;;;;5090382;28;793;-73
2022/02/24 04:38:08;;;;;;;;;;;;;;;;;;5090581;28;1102;-73
2022/02/24 04:40:35;;;;;;;;;;;;;;;;;;5090249;28;963;-72
2022/02/24 04:43:01;;;;;;;;;;;;;;;;;;5090503;28;1367;-72
2022/02/24 04:45:28;;;;;;;;;;;;;;;;;;5088309;28;1512;-72
2022/02/24 04:47:54;;;;;;;;;;;;;;;;;;5087122;28;1971;-72
2022/02/24 04:50:20;;;;;;;;;;;;;;;;;;5090066;28;1492;-70
2022/02/24 04:52:46;;;;;;;;;;;;;;;;;;5071361;28;1560;-72
2022/02/24 04:55:14;;;;;;;;;;;;;;;;;;5090534;28;1539;-72
2022/02/24 04:57:40;;;;;;;;;;;;;;;;;;5071957;28;1520;-73
2022/02/24 05:00:07;;;;;;;;;;;;;;;;;;5090376;28;1066;-72
2022/02/24 05:02:33;;;;;;;;;;;;;;;;;;5093530;28;1508;-72
2022/02/24 05:04:59;;;;;;;;;;;;;;;;;;5094443;28;687;-72
2022/02/24 05:07:25;;;;;;;;;;;;;;;;;;5075743;28;1914;-72
2022/02/24 05:09:51;;;;;;;;;;;;;;;;;;5093456;28;1492;-71
2022/02/24 05:12:19;;;;;;;;;;;;;;;;;;5093735;28;1456;-72
2022/02/24 05:14:45;;;;;;;;;;;;;;;;;;5075401;28;1600;-72
2022/02/24 05:17:11;;;;;;;;;;;;;;;;;;5093678;28;1579;-72
2022/02/24 05:19:38;;;;;;;;;;;;;;;;;;5074839;28;1496;-72
2022/02/24 05:22:04;;;;;;;;;;;;;;;;;;5093492;28;1548;-72
2022/02/24 05:24:30;;;;;;;;;;;;;;;;;;5093950;28;1583;-71
2022/02/24 05:26:57;;;;;;;;;;;;;;;;;;5093629;28;1984;-72
2022/02/24 05:29:24;;;;;;;;;;;;;;;;;;5093288;28;1923;-72
2022/02/24 05:31:50;;;;;;;;;;;;;;;;;;5092801;28;1626;-73
2022/02/24 05:34:16;;;;;;;;;;;;;;;;;;5093281;28;1504;-73
2022/02/24 05:36:43;;;;;;;;;;;;;;;;;;5092950;28;1551;-71
2022/02/24 05:39:10;;;;;;;;;;;;;;;;;;5093405;28;860;-72
2022/02/24 05:41:36;;;;;;;;;;;;;;;;;;5088199;28;1270;-72
2022/02/24 05:44:02;;;;;;;;;;;;;;;;;;5078563;28;1298;-73
2022/02/24 05:46:30;;;;;;;;;;;;;;;;;;5073043;28;855;-71
2022/02/24 05:48:56;;;;;;;;;;;;;;;;;;5064320;28;1918;-72
2022/02/24 05:51:22;;;;;;;;;;;;;;;;;;5095667;28;1300;-72
2022/02/24 05:53:48;;;;;;;;;;;;;;;;;;5077760;28;1108;-70
2022/02/24 05:56:15;;;;;;;;;;;;;;;;;;5093096;28;1071;-71
2022/02/24 05:58:42;;;;;;;;;;;;;;;;;;5075513;28;1119;-72
2022/02/24 06:01:09;;;;;;;;;;;;;;;;;;5095474;28;1312;-72
2022/02/24 06:03:36;;;;;;;;;;;;;;;;;;5098670;28;778;-71
2022/02/24 06:06:03;;;;;;;;;;;;;;;;;;5094823;28;801;-72
2022/02/24 06:08:29;;;;;;;;;;;;;;;;;;5094126;28;1992;-71
2022/02/24 06:10:55;;;;;;;;;;;;;;;;;;5092657;28;1397;-72
2022/02/24 06:13:21;;;;;;;;;;;;;;;;;;5091251;28;1142;-71
2022/02/24 06:15:48;;;;;;;;;;;;;;;;;;5074559;28;1171;-71
2022/02/24 06:18:18;;;;;;;;;;;;;;;;;;5092996;28;1082;-72
2022/02/24 06:20:46;;;;;;;;;;;;;;;;;;5092450;28;1407;-72
2022/02/24 06:23:12;;;;;;;;;;;;;;;;;;5092503;28;1067;-71
2022/02/24 06:25:38;;;;;;;;;;;;;;;;;;5092563;28;1117;-71
2022/02/24 06:28:05;;;;;;;;;;;;;;;;;;5092641;28;1909;-70
2022/02/24 06:30:31;;;;;;;;;;;;;;;;;;5092198;28;836;-70
2022/02/24 06:32:57;;;;;;;;;;;;;;;;;;5073839;28;1326;-72
2022/02/24 06:35:23;;;;;;;;;;;;;;;;;;5074437;28;1250;-72
2022/02/24 06:37:51;;;;;;;;;;;;;;;;;;5092041;28;833;-72
2022/02/24 06:40:17;;;;;;;;;;;;;;;;;;5090127;28;817;-71
2022/02/24 06:42:43;;;;;;;;;;;;;;;;;;5090914;28;1309;-72
2022/02/24 06:45:10;;;;;;;;;;;;;;;;;;5073774;28;1294;-71
2022/02/24 06:47:37;;;;;;;;;;;;;;;;;;5091889;28;1971;-72
2022/02/24 06:50:04;;;;;;;;;;;;;;;;;;5073650;28;1215;-71
2022/02/24 06:52:31;;;;;;;;;;;;;;;;;;5073649;28;1428;-71
2022/02/24 06:54:59;;;;;;;;;;;;;;;;;;5092379;28;1339;-72
2022/02/24 06:57:25;;;;;;;;;;;;;;;;;;5092186;28;1126;-72
2022/02/24 06:59:51;;;;;;;;;;;;;;;;;;5091650;28;916;-72
2022/02/24 07:02:17;;;;;;;;;;;;;;;;;;5091920;28;1383;-72
2022/02/24 07:04:44;;;;;;;;;;;;;;;;;;5073673;28;1123;-72
2022/02/24 07:07:10;;;;;;;;;;;;;;;;;;5073975;28;1353;-72
2022/02/24 07:09:37;;;;;;;;;;;;;;;;;;5091255;28;1910;-72
2022/02/24 07:12:05;;;;;;;;;;;;;;;;;;5091591;28;1321;-72
2022/02/24 07:14:31;;;;;;;;;;;;;;;;;;5091841;28;798;-72
2022/02/24 07:16:57;;;;;;;;;;;;;;;;;;5073687;28;1120;-72
2022/02/24 07:19:23;;;;;;;;;;;;;;;;;;5091527;28;932;-72
2022/02/24 07:21:50;;;;;;;;;;;;;;;;;;5091453;28;1327;-72
2022/02/24 07:24:16;;;;;;;;;;;;;;;;;;5091041;28;1129;-72
2022/02/24 07:26:42;;;;;;;;;;;;;;;;;;5073336;28;1128;-72
2022/02/24 07:29:09;;;;;;;;;;;;;;;;;;5091296;28;1918;-72
2022/02/24 07:31:36;;;;;;;;;;;;;;;;;;5090881;28;1322;-73
2022/02/24 07:34:04;;;;;;;;;;;;;;;;;;5073160;28;1442;-73
2022/02/24 07:36:31;;;;;;;;;;;;;;;;;;5091162;28;1122;-72
2022/02/24 07:38:57;;;;;;;;;;;;;;;;;;5073092;28;1120;-72
2022/02/24 07:41:23;;;;;;;;;;;;;;;;;;5090919;28;1352;-72
2022/02/24 07:43:49;;;;;;;;;;;;;;;;;;5090801;28;1549;-72
2022/02/24 07:46:17;;;;;;;;;;;;;;;;;;5091388;28;1114;-73
2022/02/24 07:48:43;;;;;;;;;;;;;;;;;;5091037;28;1910;-73
2022/02/24 07:51:10;;;;;;;;;;;;;;;;;;5090851;28;1309;-73
2022/02/24 07:53:36;;;;;;;;;;;;;;;;;;5072905;28;913;-72
2022/02/24 07:56:02;;;;;;;;;;;;;;;;;;5090947;28;794;-73
2022/02/24 07:58:29;;;;;;;;;;;;;;;;;;5091263;28;864;-72
2022/02/24 08:00:55;;;;;;;;;;;;;;;;;;5090209;28;1324;-72
2022/02/24 08:03:22;;;;;;;;;;;;;;;;;;5091142;28;783;-72
2022/02/24 08:05:48;;;;;;;;;;;;;;;;;;5090856;28;1054;-72
2022/02/24 08:08:15;;;;;;;;;;;;;;;;;;5091404;28;1965;-71
2022/02/24 08:10:41;;;;;;;;;;;;;;;;;;5090476;28;1382;-71
2022/02/24 08:13:07;;;;;;;;;;;;;;;;;;5091160;28;1039;-73
2022/02/24 08:15:33;;;;;;;;;;;;;;;;;;5090655;28;936;-72
2022/02/24 08:18:00;;;;;;;;;;;;;;;;;;5090732;28;857;-73
2022/02/24 08:20:27;;;;;;;;;;;;;;;;;;5090160;28;1129;-73
2022/02/24 08:22:54;;;;;;;;;;;;;;;;;;5090945;28;1305;-73
2022/02/24 08:25:21;;;;;;;;;;;;;;;;;;5090750;28;1071;-73
2022/02/24 08:27:47;;;;;;;;;;;;;;;;;;5094396;28;1086;-73
2022/02/24 08:30:16;;;;;;;;;;;;;;;;;;5101241;28;1984;-73
2022/02/24 08:32:44;;;;;;;;;;;;;;;;;;5072225;28;1424;-72
2022/02/24 08:35:10;;;;;;;;;;;;;;;;;;5090603;28;1158;-72
2022/02/24 08:37:38;;;;;;;;;;;;;;;;;;5094748;28;1071;-72
2022/02/24 08:40:04;;;;;;;;;;;;;;;;;;5076043;28;1348;-72
2022/02/24 08:42:30;;;;;;;;;;;;;;;;;;5094366;28;1312;-73
2022/02/24 08:44:57;;;;;;;;;;;;;;;;;;5094793;28;697;-73
2022/02/24 08:47:23;;;;;;;;;;;;;;;;;;5076545;28;1517;-73
2022/02/24 08:49:51;;;;;;;;;;;;;;;;;;5094041;28;1977;-72
2022/02/24 08:52:17;;;;;;;;;;;;;;;;;;5097824;28;1392;-72
2022/02/24 08:54:46;;;;;;;;;;;;;;;;;;5114515;28;1098;-72
2022/02/24 08:57:12;;;;;;;;;;;;;;;;;;5086759;28;1177;-72
2022/02/24 08:59:39;;;;;;;;;;;;;;;;;;5093668;28;1037;-71
2022/02/24 09:02:05;;;;;;;;;;;;;;;;;;5101416;28;1314;-72
2022/02/24 09:04:31;;;;;;;;;;;;;;;;;;5113444;28;880;-72
2022/02/24 09:06:57;;;;;;;;;;;;;;;;;;5110222;28;1102;-73
2022/02/24 09:09:25;;;;;;;;;;;;;;;;;;5093771;28;1910;-72
2022/02/24 09:11:52;;;;;;;;;;;;;;;;;;5093759;28;1328;-72
2022/02/24 09:14:18;;;;;;;;;;;;;;;;;;5094016;28;948;-72
2022/02/24 09:16:45;;;;;;;;;;;;;;;;;;5075460;28;1306;-72
2022/02/24 09:19:11;;;;;;;;;;;;;;;;;;5093914;28;1003;-72
2022/02/24 09:21:37;;;;;;;;;;;;;;;;;;5100547;28;1309;-72
2022/02/24 09:24:04;;;;;;;;;;;;;;;;;;5114161;28;790;-72
2022/02/24 09:26:30;;;;;;;;;;;;;;;;;;5113612;28;1130;-72
2022/02/24 09:28:57;;;;;;;;;;;;;;;;;;5114002;28;1968;-72
2022/02/24 09:31:24;;;;;;;;;;;;;;;;;;5113845;28;1330;-72
2022/02/24 09:33:50;;;;;;;;;;;;;;;;;;5114044;28;801;-73
2022/02/24 09:36:17;;;;;;;;;;;;;;;;;;5113944;28;805;-72
2022/02/24 09:38:43;;;;;;;;;;;;;;;;;;5113976;28;1146;-72
2022/02/24 09:41:11;;;;;;;;;;;;;;;;;;5113959;28;1427;-72
2022/02/24 09:43:37;;;;;;;;;;;;;;;;;;5086464;28;1765;-72
2022/02/24 09:46:06;;;;;;;;;;;;;;;;;;5075103;28;1144;-72
2022/02/24 09:48:33;;;;;;;;;;;;;;;;;;5093329;28;1075;-73
2022/02/24 09:51:01;;;;;;;;;;;;;;;;;;5093428;28;1898;-73
2022/02/24 09:53:27;;;;;;;;;;;;;;;;;;5093402;28;861;-74
2022/02/24 09:55:54;;;;;;;;;;;;;;;;;;5093321;28;1146;-72
2022/02/24 09:58:21;;;;;;;;;;;;;;;;;;5093266;28;1091;-73
2022/02/24 10:00:48;;;;;;;;;;;;;;;;;;5092512;28;1432;-73
2022/02/24 10:03:25;;;;;;;;;;;;;;;;;;5112276;22;1971;-68
2022/02/24 10:05:51;;;;;;;;;;;;;;;;;;5113288;28;1079;-69
2022/02/24 10:08:17;;;;;;;;;;;;;;;;;;5110737;28;2012;-68
2022/02/24 10:10:44;;;;;;;;;;;;;;;;;;5104677;28;1933;-70
2022/02/24 10:13:11;;;;;;;;;;;;;;;;;;5108589;28;1321;-69
2022/02/24 10:15:38;;;;;;;;;;;;;;;;;;5113422;28;1153;-69
2022/02/24 10:18:05;;;;;;;;;;;;;;;;;;5113072;28;1093;-70
2022/02/24 10:20:36;;;;;;;;;;;;;;;;;;5111726;28;1078;-70
2022/02/24 10:23:02;;;;;;;;;;;;;;;;;;5112884;28;1411;-70
2022/02/24 10:25:29;;;;;;;;;;;;;;;;;;5113103;28;864;-70
2022/02/24 10:27:55;;;;;;;;;;;;;;;;;;5112671;28;963;-70
2022/02/24 10:30:21;;;;;;;;;;;;;;;;;;5112409;28;1914;-69
2022/02/24 10:32:48;;;;;;;;;;;;;;;;;;5112604;28;1315;-69
2022/02/24 10:35:24;;;;;;;;;;;;;;;;;;5112967;28;1140;-70
2022/02/24 10:38:02;;;;;;;;;;;;;;;;;;5112768;28;781;-70
2022/02/24 10:40:29;;;;;;;;;;;;;;;;;;5112284;28;939;-69
2022/02/24 10:42:55;;;;;;;;;;;;;;;;;;5112606;28;1325;-70
2022/02/24 10:45:25;;;;;;;;;;;;;;;;;;5112269;28;1101;-69
2022/02/24 10:47:55;;;;;;;;;;;;;;;;;;5111444;28;1131;-69
2022/02/24 10:50:21;;;;;;;;;;;;;;;;;;5112256;28;1980;-70
2022/02/24 10:52:49;;;;;;;;;;;;;;;;;;5112327;28;1307;-70
2022/02/24 10:55:17;;;;;;;;;;;;;;;;;;5112487;28;899;-69
2022/02/24 10:57:43;;;;;;;;;;;;;;;;;;5111887;28;1039;-69
2022/02/24 11:00:09;;;;;;;;;;;;;;;;;;5112148;28;915;-70
2022/02/24 11:02:36;;;;;;;;;;;;;;;;;;5112345;28;1333;-70
2022/02/24 11:05:02;;;;;;;;;;;;;;;;;;5112647;28;705;-70
2022/02/24 11:07:29;;;;;;;;;;;;;;;;;;5112491;28;742;-70
2022/02/24 11:09:56;;;;;;;;;;;;;;;;;;5112261;28;1906;-70
2022/02/24 11:12:28;;;;;;;;;;;;;;;;;;5112225;28;1314;-71
2022/02/24 11:14:54;;;;;;;;;;;;;;;;;;5112401;28;889;-71
2022/02/24 11:17:21;;;;;;;;;;;;;;;;;;5112047;28;1186;-71
2022/02/24 11:19:47;;;;;;;;;;;;;;;;;;5111560;28;931;-71
2022/02/24 11:22:13;;;;;;;;;;;;;;;;;;5111467;28;1332;-71
2022/02/24 11:24:39;;;;;;;;;;;;;;;;;;5111945;28;975;-70
2022/02/24 11:27:07;;;;;;;;;;;;;;;;;;5110507;28;1702;-70
2022/02/24 11:29:40;;;;;;;;;;;;;;;;;;5111474;28;1976;-69
2022/02/24 11:32:06;;;;;;;;;;;;;;;;;;5111789;28;1328;-70
2022/02/24 11:34:51;;;;;;;;;;;;;;;;;;5111769;28;982;-70
2022/02/24 11:37:20;;;;;;;;;;;;;;;;;;5111901;28;848;-70
2022/02/24 11:39:46;;;;;;;;;;;;;;;;;;5111818;27;1782;-70
2022/02/24 11:42:15;;;;;;;;;;;;;;;;;;5111789;28;1316;-71
2022/02/24 11:44:42;;;;;;;;;;;;;;;;;;5111109;28;1345;-70
2022/02/24 11:47:09;;;;;;;;;;;;;;;;;;5111270;28;1282;-70
2022/02/24 11:49:54;;;;;;;;;;;;;;;;;;5110716;28;1910;-69
2022/02/24 11:52:21;;;;;;;;;;;;;;;;;;5110171;28;1336;-70
2022/02/24 11:54:47;;;;;;;;;;;;;;;;;;5114080;28;857;-69
2022/02/24 11:57:26;;;;;;;;;;;;;;;;;;5115197;28;1098;-70
2022/02/24 11:59:54;;;;;;;;;;;;;;;;;;5111319;28;1173;-69
2022/02/24 12:02:20;;;;;;;;;;;;;;;;;;5111153;28;1321;-70
2022/02/24 12:04:47;;;;;;;;;;;;;;;;;;5106675;28;1302;-71
2022/02/24 12:07:14;;;;;;;;;;;;;;;;;;5110467;28;1277;-70
2022/02/24 12:09:40;;;;;;;;;;;;;;;;;;5110837;28;1981;-67
2022/02/24 12:12:10;;;;;;;;;;;;;;;;;;5111159;28;1411;-70
2022/02/24 12:14:47;;;;;;;;;;;;;;;;;;5111267;28;1077;-70
2022/02/24 12:17:15;;;;;;;;;;;;;;;;;;5110803;28;790;-70
2022/02/24 12:19:43;;;;;;;;;;;;;;;;;;5110632;28;1118;-70
2022/02/24 12:22:14;;;;;;;;;;;;;;;;;;5111038;28;1427;-70
2022/02/24 12:24:41;;;;;;;;;;;;;;;;;;5111064;28;1081;-70
2022/02/24 12:27:22;;;;;;;;;;;;;;;;;;5111239;28;797;-70
2022/02/24 12:29:49;;;;;;;;;;;;;;;;;;5110741;28;1906;-70
2022/02/24 12:32:20;;;;;;;;;;;;;;;;;;5111108;28;1371;-70
2022/02/24 12:34:46;;;;;;;;;;;;;;;;;;5110806;28;1167;-70
2022/02/24 12:37:13;;;;;;;;;;;;;;;;;;5111161;28;1109;-70
2022/02/24 12:39:40;;;;;;;;;;;;;;;;;;5110654;28;794;-67
2022/02/24 12:42:08;;;;;;;;;;;;;;;;;;5110960;28;1337;-70
2022/02/24 12:44:35;;;;;;;;;;;;;;;;;;5110797;28;1000;-70
2022/02/24 12:47:01;;;;;;;;;;;;;;;;;;5111152;28;1098;-70
2022/02/24 12:49:40;;;;;;;;;;;;;;;;;;5110709;28;915;-70
2022/02/24 12:52:06;;;;;;;;;;;;;;;;;;5110830;28;1293;-69
2022/02/24 12:54:33;;;;;;;;;;;;;;;;;;5110549;28;880;-69
2022/02/24 12:57:01;;;;;;;;;;;;;;;;;;5110843;28;1137;-71
2022/02/24 12:59:27;;;;;;;;;;;;;;;;;;5110622;28;1122;-69
2022/02/24 13:01:54;;;;;;;;;;;;;;;;;;5110049;28;1313;-70
2022/02/24 13:04:21;;;;;;;;;;;;;;;;;;5109666;28;1391;-70
2022/02/24 13:06:49;;;;;;;;;;;;;;;;;;5110403;28;1142;-70
2022/02/24 13:12:00;;;;;;;;;;;;;;;;;;5110190;28;1981;-70
2022/02/24 13:14:26;;;;;;;;;;;;;;;;;;5110752;28;1141;-70
2022/02/24 13:16:53;;;;;;;;;;;;;;;;;;5111526;28;1133;-68
2022/02/24 13:19:19;;;;;;;;;;;;;;;;;;5110945;28;1238;-70
2022/02/24 13:21:45;;;;;;;;;;;;;;;;;;5110900;28;1340;-70
2022/02/24 13:24:13;;;;;;;;;;;;;;;;;;5114180;28;893;-69
2022/02/24 13:26:43;;;;;;;;;;;;;;;;;;5113793;28;1673;-68
2022/02/24 13:29:09;;;;;;;;;;;;;;;;;;5114589;28;1149;-69
2022/02/24 13:31:36;;;;;;;;;;;;;;;;;;5113547;28;1974;-69
2022/02/24 13:34:10;;;;;;;;;;;;;;;;;;5114086;28;1345;-69
2022/02/24 13:36:36;;;;;;;;;;;;;;;;;;5114185;28;1050;-68
2022/02/24 13:39:03;;;;;;;;;;;;;;;;;;5114227;28;1086;-69
2022/02/24 13:41:30;;;;;;;;;;;;;;;;;;5113536;28;808;-68
2022/02/24 13:43:58;;;;;;;;;;;;;;;;;;5113586;28;1403;-70
2022/02/24 13:46:25;;;;;;;;;;;;;;;;;;5113208;28;959;-70
2022/02/24 13:48:51;;;;;;;;;;;;;;;;;;5115897;27;2039;-70
2022/02/24 13:51:18;;;;;;;;;;;;;;;;;;5113259;28;1914;-70
2022/02/24 13:53:49;;;;;;;;;;;;;;;;;;5113207;28;1321;-70
2022/02/24 13:56:15;;;;;;;;;;;;;;;;;;5113592;27;1081;-71
2022/02/24 13:58:43;;;;;;;;;;;;;;;;;;5113447;28;1148;-70
2022/02/24 14:01:10;;;;;;;;;;;;;;;;;;5113264;28;1069;-70
2022/02/24 14:03:37;;;;;;;;;;;;;;;;;;5112648;28;1386;-69
2022/02/24 14:06:04;;;;;;;;;;;;;;;;;;5113272;28;864;-70
2022/02/24 14:08:30;;;;;;;;;;;;;;;;;;5113367;28;1137;-70
2022/02/24 14:11:06;;;;;;;;;;;;;;;;;;5112970;28;1973;-70
2022/02/24 14:13:33;;;;;;;;;;;;;;;;;;5113050;28;1409;-70
2022/02/24 14:16:00;;;;;;;;;;;;;;;;;;5113025;28;805;-70
2022/02/24 14:18:26;;;;;;;;;;;;;;;;;;5113018;28;1082;-71
2022/02/24 14:20:52;;;;;;;;;;;;;;;;;;5112788;28;805;-72
2022/02/24 14:23:19;;;;;;;;;;;;;;;;;;5113220;28;1343;-70
2022/02/24 14:25:45;;;;;;;;;;;;;;;;;;5111725;28;1328;-70
2022/02/24 14:28:11;;;;;;;;;;;;;;;;;;5113101;28;832;-70
2022/02/24 14:30:37;;;;;;;;;;;;;;;;;;5112145;28;1914;-70
2022/02/24 14:33:05;;;;;;;;;;;;;;;;;;5111727;28;1329;-70
2022/02/24 14:35:31;;;;;;;;;;;;;;;;;;5112676;28;1006;-70
2022/02/24 14:37:57;;;;;;;;;;;;;;;;;;5112599;28;980;-71
2022/02/24 14:40:24;;;;;;;;;;;;;;;;;;5112471;28;1090;-71
2022/02/24 14:42:50;;;;;;;;;;;;;;;;;;5113548;28;1341;-71
2022/02/24 14:45:16;;;;;;;;;;;;;;;;;;5118751;28;1133;-70
2022/02/24 14:47:42;;;;;;;;;;;;;;;;;;5117362;28;804;-70
2022/02/24 14:50:11;;;;;;;;;;;;;;;;;;5112184;28;1061;-70
2022/02/24 14:52:37;;;;;;;;;;;;;;;;;;5112163;28;1345;-70
2022/02/24 14:55:03;;;;;;;;;;;;;;;;;;5112430;28;967;-70
2022/02/24 14:57:30;;;;;;;;;;;;;;;;;;5112312;28;1098;-70
2022/02/24 14:59:58;;;;;;;;;;;;;;;;;;5111801;28;884;-70
2022/02/24 15:02:26;;;;;;;;;;;;;;;;;;5112111;28;1327;-70
2022/02/24 15:04:52;;;;;;;;;;;;;;;;;;5111987;28;1098;-70
2022/02/24 15:07:19;;;;;;;;;;;;;;;;;;5112148;28;1066;-70
2022/02/24 15:09:46;;;;;;;;;;;;;;;;;;5111864;28;1010;-70
2022/02/24 15:12:12;;;;;;;;;;;;;;;;;;5112096;28;1980;-70
2022/02/24 15:14:38;;;;;;;;;;;;;;;;;;5111891;28;1143;-70
2022/02/24 15:17:04;;;;;;;;;;;;;;;;;;5110368;28;1047;-70
2022/02/24 15:19:31;;;;;;;;;;;;;;;;;;5110469;28;1330;-70
2022/02/24 15:21:57;;;;;;;;;;;;;;;;;;5110708;28;1344;-71
2022/02/24 15:24:25;;;;;;;;;;;;;;;;;;5111888;28;920;-70
2022/02/24 15:26:51;;;;;;;;;;;;;;;;;;5111837;28;1090;-69
2022/02/24 15:29:18;;;;;;;;;;;;;;;;;;5111801;28;1244;-69
2022/02/24 15:31:44;;;;;;;;;;;;;;;;;;5111150;28;1917;-69
2022/02/24 15:34:10;;;;;;;;;;;;;;;;;;5111507;28;1078;-70
2022/02/24 15:36:36;;;;;;;;;;;;;;;;;;5111056;28;818;-70
2022/02/24 15:39:03;;;;;;;;;;;;;;;;;;5111340;28;1085;-71
2022/02/24 15:41:30;;;;;;;;;;;;;;;;;;5111173;28;1010;-70
2022/02/24 15:43:57;;;;;;;;;;;;;;;;;;5111276;28;1401;-70
2022/02/24 15:46:24;;;;;;;;;;;;;;;;;;5111389;28;963;-70
2022/02/24 15:48:50;;;;;;;;;;;;;;;;;;5111472;28;927;-70
2022/02/24 15:51:17;;;;;;;;;;;;;;;;;;5113713;27;1922;-70
2022/02/24 15:53:43;;;;;;;;;;;;;;;;;;5111257;28;1282;-71
2022/02/24 15:56:09;;;;;;;;;;;;;;;;;;5111090;28;1121;-70
2022/02/24 15:58:38;;;;;;;;;;;;;;;;;;5111075;28;908;-70
2022/02/24 16:01:04;;;;;;;;;;;;;;;;;;5111148;28;1019;-69
2022/02/24 16:03:30;;;;;;;;;;;;;;;;;;5126496;22;3733;-72
2022/02/24 16:05:56;;;;;;;;;;;;;;;;;;5052390;28;2430;-72
2022/02/24 16:08:23;;;;;;;;;;;;;;;;;;5067761;28;1134;-72
2022/02/24 16:10:50;;;;;;;;;;;;;;;;;;5061929;28;1914;-72
2022/02/24 16:13:16;;;;;;;;;;;;;;;;;;5066006;28;1375;-71
2022/02/24 16:15:43;;;;;;;;;;;;;;;;;;5061999;28;1179;-72
2022/02/24 16:18:10;;;;;;;;;;;;;;;;;;5061230;28;1327;-71
2022/02/24 16:20:36;;;;;;;;;;;;;;;;;;5057203;28;1266;-72
2022/02/24 16:23:03;;;;;;;;;;;;;;;;;;5049959;28;1144;-71
2022/02/24 16:25:30;;;;;;;;;;;;;;;;;;5050769;28;1313;-72
2022/02/24 16:27:56;;;;;;;;;;;;;;;;;;5049937;28;1085;-71
2022/02/24 16:30:22;;;;;;;;;;;;;;;;;;5049978;28;1161;-71
2022/02/24 16:32:50;;;;;;;;;;;;;;;;;;5049799;28;2004;-71
2022/02/24 16:35:16;;;;;;;;;;;;;;;;;;5054970;28;1414;-72
2022/02/24 16:37:42;;;;;;;;;;;;;;;;;;5050316;28;1479;-74
2022/02/24 16:40:09;;;;;;;;;;;;;;;;;;5050113;28;964;-71
2022/02/24 16:42:35;;;;;;;;;;;;;;;;;;5050580;28;853;-72
2022/02/24 16:45:02;;;;;;;;;;;;;;;;;;5050244;28;1412;-72
2022/02/24 16:47:28;;;;;;;;;;;;;;;;;;5032613;28;1223;-71
2022/02/24 16:49:56;;;;;;;;;;;;;;;;;;5032104;28;837;-71
2022/02/24 16:52:22;;;;;;;;;;;;;;;;;;5050171;28;1922;-72
2022/02/24 16:54:49;;;;;;;;;;;;;;;;;;5050109;28;1310;-74
2022/02/24 16:57:15;;;;;;;;;;;;;;;;;;5051969;28;1095;-73
2022/02/24 16:59:41;;;;;;;;;;;;;;;;;;5035802;28;1203;-73
2022/02/24 17:02:08;;;;;;;;;;;;;;;;;;5083012;28;1014;-74
2022/02/24 17:04:34;;;;;;;;;;;;;;;;;;5093973;28;1316;-72
2022/02/24 17:07:02;;;;;;;;;;;;;;;;;;5093903;28;1147;-74
2022/02/24 17:09:28;;;;;;;;;;;;;;;;;;5093721;28;781;-74